Time;durP1;ratioP1;P1;durP2;ratioP2;P2;SDS_P1;SDS_P2;PMS_P1;PMS_P2;Temp;Humidity;BMP_temperature;BMP_pressure;BME280_temperature;BME280_humidity;BME280_pressure;Samples;Min_cycle;Max_cycle;Signal;HPM_P1;HPM_P2
2023/04/24 00:01:52;;;;;;;5.57;2.80;;;;;;;;;;4996717;28;20969;-82
2023/04/24 00:04:19;;;;;;;7.20;2.90;;;;;;;;;;4991591;28;20910;-80
2023/04/24 00:06:49;;;;;;;5.37;2.90;;;;;;;;;;4993061;28;20515;-80
2023/04/24 00:09:18;;;;;;;5.68;3.10;;;;;;;;;;5001691;28;20424;-79
2023/04/24 00:11:46;;;;;;;6.68;3.20;;;;;;;;;;4992397;28;20415;-79
2023/04/24 00:14:14;;;;;;;5.97;3.20;;;;;;;;;;4991329;28;20438;-78
2023/04/24 00:16:46;;;;;;;6.57;2.90;;;;;;;;;;4989867;28;20426;-80
2023/04/24 00:19:14;;;;;;;6.63;3.25;;;;;;;;;;4994269;28;20413;-79
2023/04/24 00:21:49;;;;;;;5.70;3.13;;;;;;;;;;4982588;28;20426;-80
2023/04/24 00:24:23;;;;;;;6.75;3.22;;;;;;;;;;4992543;28;20434;-79
2023/04/24 00:26:56;;;;;;;5.43;3.03;;;;;;;;;;5008475;28;20425;-80
2023/04/24 00:29:29;;;;;;;6.50;3.13;;;;;;;;;;4992721;28;20438;-79
2023/04/24 00:31:57;;;;;;;7.18;3.60;;;;;;;;;;4990863;28;20430;-80
2023/04/24 00:34:30;;;;;;;6.67;3.50;;;;;;;;;;4991759;28;20428;-79
2023/04/24 00:37:02;;;;;;;7.47;3.78;;;;;;;;;;5007289;28;20426;-80
2023/04/24 00:39:36;;;;;;;6.35;3.30;;;;;;;;;;5007402;28;20426;-81
2023/04/24 00:42:09;;;;;;;7.03;3.63;;;;;;;;;;5007122;28;20422;-80
2023/04/24 00:44:42;;;;;;;6.25;3.50;;;;;;;;;;4991894;28;20922;-80
2023/04/24 00:47:10;;;;;;;7.03;3.80;;;;;;;;;;4991715;28;20506;-80
2023/04/24 00:49:38;;;;;;;6.60;3.70;;;;;;;;;;4993179;28;20433;-80
2023/04/24 00:52:08;;;;;;;8.07;4.00;;;;;;;;;;4991141;28;20426;-80
2023/04/24 00:54:37;;;;;;;7.97;3.60;;;;;;;;;;4990951;28;20427;-80
2023/04/24 00:57:05;;;;;;;6.40;3.78;;;;;;;;;;4991738;28;20422;-80
2023/04/24 00:59:40;;;;;;;6.70;4.00;;;;;;;;;;4991144;28;20433;-80
2023/04/24 01:02:13;;;;;;;6.70;4.00;;;;;;;;;;4988873;28;20416;-81
2023/04/24 01:04:41;;;;;;;8.33;4.00;;;;;;;;;;4990987;28;20426;-80
2023/04/24 01:07:11;;;;;;;8.38;4.10;;;;;;;;;;4993990;28;20880;-81
2023/04/24 01:09:41;;;;;;;7.25;3.97;;;;;;;;;;5006854;28;20433;-80
2023/04/24 01:12:13;;;;;;;7.03;3.72;;;;;;;;;;4978649;28;20438;-79
2023/04/24 01:14:46;;;;;;;7.38;3.47;;;;;;;;;;5006878;28;20907;-80
2023/04/24 01:17:16;;;;;;;6.90;4.03;;;;;;;;;;5006349;28;20414;-80
2023/04/24 01:19:49;;;;;;;6.90;4.07;;;;;;;;;;4998032;28;20423;-80
2023/04/24 01:22:18;;;;;;;7.65;4.30;;;;;;;;;;4998082;28;20901;-80
2023/04/24 01:24:51;;;;;;;8.43;4.20;;;;;;;;;;5006922;28;20427;-80
2023/04/24 01:27:18;;;;;;;8.18;4.10;;;;;;;;;;4991135;28;20755;-80
2023/04/24 01:29:47;;;;;;;7.25;4.10;;;;;;;;;;5006926;28;20430;-80
2023/04/24 01:32:20;;;;;;;7.20;4.00;;;;;;;;;;4980931;28;20894;-80
2023/04/24 01:34:49;;;;;;;7.30;4.18;;;;;;;;;;4989353;28;20435;-80
2023/04/24 01:37:23;;;;;;;9.52;4.55;;;;;;;;;;4990094;28;20451;-80
2023/04/24 01:39:57;;;;;;;7.65;4.50;;;;;;;;;;4992357;28;20425;-80
2023/04/24 01:42:30;;;;;;;10.20;4.70;;;;;;;;;;4992285;28;20422;-80
2023/04/24 01:45:04;;;;;;;8.47;4.80;;;;;;;;;;4999116;28;20436;-80
2023/04/24 01:47:37;;;;;;;8.15;4.50;;;;;;;;;;4997658;28;20425;-80
2023/04/24 01:50:05;;;;;;;7.30;4.43;;;;;;;;;;4984468;28;20426;-81
2023/04/24 01:52:35;;;;;;;7.03;4.38;;;;;;;;;;4991957;28;20422;-80
2023/04/24 01:55:10;;;;;;;8.90;4.50;;;;;;;;;;4997821;28;20434;-80
2023/04/24 01:57:45;;;;;;;8.88;4.65;;;;;;;;;;4988633;28;20434;-79
2023/04/24 02:00:19;;;;;;;8.75;4.18;;;;;;;;;;5003419;28;21249;-79
2023/04/24 02:02:47;;;;;;;8.20;4.53;;;;;;;;;;4989781;28;20911;-80
2023/04/24 02:05:14;;;;;;;8.48;4.30;;;;;;;;;;4990280;28;20425;-80
2023/04/24 02:07:49;;;;;;;7.45;4.57;;;;;;;;;;4991455;28;20453;-79
2023/04/24 02:10:17;;;;;;;7.80;4.40;;;;;;;;;;5002779;28;20418;-80
2023/04/24 02:12:44;;;;;;;8.53;4.30;;;;;;;;;;4991301;28;20410;-80
2023/04/24 02:15:17;;;;;;;7.30;4.50;;;;;;;;;;4990310;28;20430;-80
2023/04/24 02:17:50;;;;;;;6.93;4.10;;;;;;;;;;4991312;28;20954;-79
2023/04/24 02:20:23;;;;;;;7.60;4.30;;;;;;;;;;4990394;28;20524;-79
2023/04/24 02:22:52;;;;;;;7.78;4.57;;;;;;;;;;4991366;28;20430;-80
2023/04/24 02:25:25;;;;;;;7.07;4.28;;;;;;;;;;5006654;28;20433;-80
2023/04/24 02:27:57;;;;;;;8.40;4.30;;;;;;;;;;4991582;28;20418;-80
2023/04/24 02:30:30;;;;;;;7.30;4.30;;;;;;;;;;4982273;28;20595;-80
2023/04/24 02:33:03;;;;;;;7.63;4.28;;;;;;;;;;4989901;28;20457;-79
2023/04/24 02:35:31;;;;;;;7.32;4.22;;;;;;;;;;4990051;28;20893;-79
2023/04/24 02:38:05;;;;;;;7.40;4.35;;;;;;;;;;4987539;28;20442;-80
2023/04/24 02:40:32;;;;;;;9.70;4.70;;;;;;;;;;4990551;28;20410;-80
2023/04/24 02:43:05;;;;;;;7.90;4.60;;;;;;;;;;5005653;28;20907;-79
2023/04/24 02:45:34;;;;;;;8.18;4.65;;;;;;;;;;4984906;28;20427;-79
2023/04/24 02:48:02;;;;;;;6.88;4.35;;;;;;;;;;4981074;28;20423;-80
2023/04/24 02:50:30;;;;;;;8.23;4.22;;;;;;;;;;5004816;28;20437;-80
2023/04/24 02:52:57;;;;;;;7.65;4.40;;;;;;;;;;4988582;28;20784;-79
2023/04/24 02:55:31;;;;;;;7.93;4.20;;;;;;;;;;4997824;28;20966;-79
2023/04/24 02:57:59;;;;;;;8.15;3.88;;;;;;;;;;4988717;28;20441;-79
2023/04/24 03:00:32;;;;;;;6.83;3.60;;;;;;;;;;4988933;28;20437;-79
2023/04/24 03:03:06;;;;;;;7.57;3.50;;;;;;;;;;4998881;28;20511;-80
2023/04/24 03:05:39;;;;;;;6.70;3.40;;;;;;;;;;4990840;28;20429;-79
2023/04/24 03:08:12;;;;;;;7.10;3.28;;;;;;;;;;4985851;28;20439;-80
2023/04/24 03:10:41;;;;;;;5.97;3.08;;;;;;;;;;5009253;28;20919;-79
2023/04/24 03:13:16;;;;;;;5.53;2.88;;;;;;;;;;5008413;28;20421;-80
2023/04/24 03:15:44;;;;;;;4.90;2.58;;;;;;;;;;4995713;28;20418;-80
2023/04/24 03:18:12;;;;;;;5.43;2.73;;;;;;;;;;5009103;28;20905;-79
2023/04/24 03:20:46;;;;;;;6.53;2.55;;;;;;;;;;5009004;28;20775;-79
2023/04/24 03:23:15;;;;;;;4.93;2.30;;;;;;;;;;5006880;28;20437;-80
2023/04/24 03:25:44;;;;;;;4.50;2.33;;;;;;;;;;5008518;28;20429;-80
2023/04/24 03:28:13;;;;;;;4.78;2.25;;;;;;;;;;4992820;28;20430;-79
2023/04/24 03:30:48;;;;;;;5.13;2.70;;;;;;;;;;5009180;28;20906;-80
2023/04/24 03:33:23;;;;;;;5.57;2.90;;;;;;;;;;5002567;28;20425;-80
2023/04/24 03:36:00;;;;;;;4.07;2.30;;;;;;;;;;4983631;28;20426;-81
2023/04/24 03:38:36;;;;;;;4.40;2.27;;;;;;;;;;5003050;28;20416;-80
2023/04/24 03:41:20;;;;;;;3.28;2.00;;;;;;;;;;4991906;28;20449;-79
2023/04/24 03:44:02;;;;;;;5.32;2.30;;;;;;;;;;5003068;28;20780;-79
2023/04/24 03:46:31;;;;;;;3.80;2.10;;;;;;;;;;5003082;28;20435;-79
2023/04/24 03:49:00;;;;;;;6.65;2.30;;;;;;;;;;4993851;28;20425;-80
2023/04/24 03:51:37;;;;;;;4.35;2.20;;;;;;;;;;4999931;28;20433;-80
2023/04/24 03:54:30;;;;;;;4.13;2.20;;;;;;;;;;4992249;28;20755;-80
2023/04/24 03:57:01;;;;;;;4.43;2.20;;;;;;;;;;4992854;28;20433;-79
2023/04/24 03:59:31;;;;;;;4.40;2.10;;;;;;;;;;4990808;28;20457;-79
2023/04/24 04:02:11;;;;;;;5.32;2.50;;;;;;;;;;4991440;28;20423;-79
2023/04/24 04:04:44;;;;;;;4.20;2.00;;;;;;;;;;4987002;28;20442;-80
2023/04/24 04:07:17;;;;;;;4.18;2.00;;;;;;;;;;5009366;28;20431;-80
2023/04/24 04:09:45;;;;;;;4.30;2.30;;;;;;;;;;4993653;28;20433;-79
2023/04/24 04:12:14;;;;;;;3.00;1.90;;;;;;;;;;4991869;28;20982;-80
2023/04/24 04:14:41;;;;;;;3.22;1.90;;;;;;;;;;4991962;28;20434;-80
2023/04/24 04:17:09;;;;;;;3.88;2.00;;;;;;;;;;4992038;28;20430;-80
2023/04/24 04:19:37;;;;;;;3.13;1.85;;;;;;;;;;4991912;28;20442;-80
2023/04/24 04:22:05;;;;;;;3.30;1.80;;;;;;;;;;4997503;28;20418;-79
2023/04/24 04:24:46;;;;;;;2.95;1.88;;;;;;;;;;4994549;28;20434;-79
2023/04/24 04:27:23;;;;;;;4.25;1.88;;;;;;;;;;4992159;28;20425;-79
2023/04/24 04:30:04;;;;;;;3.95;1.95;;;;;;;;;;5008861;28;20803;-80
2023/04/24 04:32:38;;;;;;;3.00;1.80;;;;;;;;;;5001790;28;20430;-79
2023/04/24 04:35:11;;;;;;;3.38;1.70;;;;;;;;;;5005636;28;20953;-80
2023/04/24 04:37:39;;;;;;;3.70;1.70;;;;;;;;;;4992183;28;20429;-79
2023/04/24 04:40:16;;;;;;;2.85;1.65;;;;;;;;;;4990791;28;20441;-79
2023/04/24 04:42:56;;;;;;;2.38;1.48;;;;;;;;;;5007308;28;20433;-79
2023/04/24 04:45:37;;;;;;;4.57;1.80;;;;;;;;;;5005814;28;20877;-79
2023/04/24 04:48:25;;;;;;;3.47;1.60;;;;;;;;;;4987217;28;20811;-79
2023/04/24 04:50:59;;;;;;;2.75;1.73;;;;;;;;;;5008186;28;20427;-79
2023/04/24 04:53:28;;;;;;;3.72;1.60;;;;;;;;;;5000670;28;20439;-80
2023/04/24 04:56:02;;;;;;;3.55;1.58;;;;;;;;;;5001782;28;20425;-79
2023/04/24 04:58:37;;;;;;;2.80;1.70;;;;;;;;;;4990171;28;20939;-81
2023/04/24 05:01:13;;;;;;;2.53;1.50;;;;;;;;;;4981497;28;20447;-80
2023/04/24 05:03:43;;;;;;;4.18;1.60;;;;;;;;;;5001501;28;20787;-81
2023/04/24 05:06:14;;;;;;;3.05;1.60;;;;;;;;;;5000328;28;20437;-79
2023/04/24 05:08:48;;;;;;;2.38;1.50;;;;;;;;;;5000565;28;20938;-80
2023/04/24 05:11:30;;;;;;;2.10;1.40;;;;;;;;;;5005534;28;20430;-80
2023/04/24 05:14:00;;;;;;;1.90;1.20;;;;;;;;;;4989817;28;20433;-80
2023/04/24 05:16:36;;;;;;;3.13;1.30;;;;;;;;;;4989284;28;20441;-81
2023/04/24 05:19:05;;;;;;;2.15;1.15;;;;;;;;;;5006176;28;20437;-80
2023/04/24 05:21:41;;;;;;;2.25;1.20;;;;;;;;;;4982861;28;21132;-81
2023/04/24 05:24:14;;;;;;;1.52;1.08;;;;;;;;;;4991962;28;20421;-80
2023/04/24 05:27:00;;;;;;;2.08;1.33;;;;;;;;;;4990264;28;20465;-80
2023/04/24 05:29:37;;;;;;;2.85;1.45;;;;;;;;;;5005602;28;20492;-81
2023/04/24 05:32:10;;;;;;;2.13;1.30;;;;;;;;;;5004357;28;20431;-80
2023/04/24 05:34:43;;;;;;;2.15;1.30;;;;;;;;;;5003504;28;20443;-81
2023/04/24 05:37:11;;;;;;;1.95;1.17;;;;;;;;;;4989421;28;20434;-80
2023/04/24 05:39:44;;;;;;;1.60;1.10;;;;;;;;;;4988976;28;20436;-82
2023/04/24 05:42:11;;;;;;;1.50;1.10;;;;;;;;;;4989790;28;20415;-79
2023/04/24 05:44:41;;;;;;;1.42;1.00;;;;;;;;;;4990529;28;20433;-80
2023/04/24 05:47:08;;;;;;;2.22;1.15;;;;;;;;;;4982126;28;20433;-81
2023/04/24 05:49:36;;;;;;;1.58;1.10;;;;;;;;;;4990122;28;20418;-81
2023/04/24 05:52:06;;;;;;;2.72;1.55;;;;;;;;;;4988287;28;20426;-80
2023/04/24 05:54:40;;;;;;;2.85;1.67;;;;;;;;;;5005544;28;20418;-80
2023/04/24 05:57:17;;;;;;;2.05;1.50;;;;;;;;;;4985836;28;20445;-79
2023/04/24 06:00:08;;;;;;;3.47;1.67;;;;;;;;;;4989160;28;20803;-81
2023/04/24 06:02:48;;;;;;;3.97;1.80;;;;;;;;;;5005719;28;20438;-81
2023/04/24 06:05:15;;;;;;;2.97;1.70;;;;;;;;;;4986152;28;20441;-82
2023/04/24 06:07:48;;;;;;;3.38;1.63;;;;;;;;;;4987511;28;20434;-80
2023/04/24 06:10:24;;;;;;;2.13;1.08;;;;;;;;;;4997518;28;20429;-81
2023/04/24 06:13:00;;;;;;;1.73;1.20;;;;;;;;;;4989906;28;20898;-80
2023/04/24 06:15:36;;;;;;;2.58;1.38;;;;;;;;;;4999499;28;20415;-81
2023/04/24 06:18:12;;;;;;;2.40;1.45;;;;;;;;;;5005523;28;20415;-80
2023/04/24 06:20:45;;;;;;;2.93;1.70;;;;;;;;;;4996639;28;20423;-79
2023/04/24 06:23:18;;;;;;;5.32;1.75;;;;;;;;;;4989877;28;20426;-82
2023/04/24 06:25:48;;;;;;;2.63;1.30;;;;;;;;;;5005402;28;20436;-81
2023/04/24 06:28:21;;;;;;;2.22;1.30;;;;;;;;;;4981085;28;20430;-82
2023/04/24 06:30:55;;;;;;;2.07;1.30;;;;;;;;;;4981587;28;20438;-81
2023/04/24 06:33:23;;;;;;;2.25;1.45;;;;;;;;;;5003549;28;20426;-82
2023/04/24 06:35:56;;;;;;;2.42;1.60;;;;;;;;;;5003285;28;20438;-81
2023/04/24 06:38:23;;;;;;;3.08;1.80;;;;;;;;;;4987972;28;20414;-82
2023/04/24 06:40:51;;;;;;;2.08;1.48;;;;;;;;;;4984810;28;20789;-80
2023/04/24 06:43:20;;;;;;;2.88;1.58;;;;;;;;;;4988782;28;20437;-80
2023/04/24 06:45:48;;;;;;;2.80;1.40;;;;;;;;;;4986385;28;20748;-78
2023/04/24 06:48:22;;;;;;;3.45;1.60;;;;;;;;;;4991184;28;20946;-80
2023/04/24 06:50:49;;;;;;;3.27;1.30;;;;;;;;;;5001597;28;20934;-81
2023/04/24 06:53:22;;;;;;;2.00;1.40;;;;;;;;;;5000403;28;20457;-82
2023/04/24 06:55:55;;;;;;;2.08;1.48;;;;;;;;;;4990340;28;20445;-79
2023/04/24 06:58:23;;;;;;;3.05;1.30;;;;;;;;;;4990961;28;20434;-79
2023/04/24 07:00:55;;;;;;;1.88;1.23;;;;;;;;;;4992800;28;20764;-80
2023/04/24 07:03:25;;;;;;;2.55;1.30;;;;;;;;;;4990924;28;20422;-80
2023/04/24 07:05:53;;;;;;;2.05;1.30;;;;;;;;;;4944984;28;20945;-80
2023/04/24 07:08:21;;;;;;;3.33;1.48;;;;;;;;;;4984885;28;20779;-81
2023/04/24 07:10:50;;;;;;;2.20;1.40;;;;;;;;;;4975847;28;20483;-83
2023/04/24 07:13:18;;;;;;;2.75;1.55;;;;;;;;;;4978854;28;20437;-82
2023/04/24 07:15:52;;;;;;;2.28;1.40;;;;;;;;;;4972929;28;20834;-82
2023/04/24 07:18:26;;;;;;;5.10;1.48;;;;;;;;;;4990407;28;20438;-81
2023/04/24 07:20:59;;;;;;;3.57;1.40;;;;;;;;;;4984784;28;20437;-81
2023/04/24 07:23:27;;;;;;;2.47;1.40;;;;;;;;;;4992969;28;20436;-81
2023/04/24 07:25:55;;;;;;;2.30;1.40;;;;;;;;;;4975417;28;20437;-83
2023/04/24 07:28:22;;;;;;;2.60;1.60;;;;;;;;;;5000424;28;20476;-80
2023/04/24 07:30:55;;;;;;;3.90;1.85;;;;;;;;;;5007512;28;20426;-81
2023/04/24 07:33:23;;;;;;;3.45;1.58;;;;;;;;;;4990751;28;20434;-81
2023/04/24 07:35:52;;;;;;;3.65;1.70;;;;;;;;;;4991630;28;20430;-81
2023/04/24 07:38:21;;;;;;;4.10;2.10;;;;;;;;;;4990272;28;20470;-81
2023/04/24 07:40:49;;;;;;;3.00;1.60;;;;;;;;;;4989908;28;20427;-82
2023/04/24 07:43:17;;;;;;;3.83;1.73;;;;;;;;;;5006596;28;20430;-81
2023/04/24 07:45:45;;;;;;;2.97;1.60;;;;;;;;;;4991873;28;20445;-81
2023/04/24 07:48:14;;;;;;;2.65;1.55;;;;;;;;;;4991877;28;20419;-81
2023/04/24 07:50:42;;;;;;;2.38;1.40;;;;;;;;;;4991077;28;20832;-81
2023/04/24 07:53:16;;;;;;;3.00;1.85;;;;;;;;;;4991718;28;20437;-80
2023/04/24 07:55:49;;;;;;;2.65;1.50;;;;;;;;;;4990942;28;20449;-81
2023/04/24 07:58:21;;;;;;;3.42;1.85;;;;;;;;;;4991330;28;20430;-80
2023/04/24 08:00:49;;;;;;;5.15;1.83;;;;;;;;;;5004393;28;20434;-82
2023/04/24 08:03:19;;;;;;;2.40;1.30;;;;;;;;;;4991085;28;20453;-80
2023/04/24 08:05:52;;;;;;;3.00;1.50;;;;;;;;;;5004016;28;20469;-81
2023/04/24 08:08:22;;;;;;;1.83;1.20;;;;;;;;;;4991732;28;20426;-81
2023/04/24 08:10:55;;;;;;;2.40;1.30;;;;;;;;;;4990901;28;20500;-81
2023/04/24 08:13:23;;;;;;;4.00;1.30;;;;;;;;;;5007301;28;20763;-80
2023/04/24 08:15:57;;;;;;;4.05;1.40;;;;;;;;;;4990392;28;20426;-81
2023/04/24 08:18:29;;;;;;;3.15;1.30;;;;;;;;;;4980611;28;20431;-82
2023/04/24 08:21:01;;;;;;;3.27;1.40;;;;;;;;;;4991279;28;20434;-81
2023/04/24 08:23:35;;;;;;;2.45;1.30;;;;;;;;;;4989595;28;20430;-82
2023/04/24 08:26:08;;;;;;;3.22;1.38;;;;;;;;;;4990006;28;20768;-81
2023/04/24 08:28:35;;;;;;;3.60;1.45;;;;;;;;;;4991399;28;20457;-81
2023/04/24 08:31:08;;;;;;;3.05;1.50;;;;;;;;;;5005970;28;20444;-81
2023/04/24 08:33:36;;;;;;;3.38;1.70;;;;;;;;;;4990232;28;20434;-82
2023/04/24 08:36:09;;;;;;;2.38;1.30;;;;;;;;;;4991235;28;20749;-81
2023/04/24 08:38:38;;;;;;;2.67;1.20;;;;;;;;;;4990261;28;20422;-84
2023/04/24 08:41:06;;;;;;;3.00;1.10;;;;;;;;;;5000687;28;20452;-81
2023/04/24 08:43:36;;;;;;;1.88;1.20;;;;;;;;;;4994645;28;20426;-81
2023/04/24 08:46:04;;;;;;;2.53;1.17;;;;;;;;;;4990809;28;20433;-81
2023/04/24 08:48:32;;;;;;;1.85;1.15;;;;;;;;;;4990476;28;20429;-83
2023/04/24 08:51:01;;;;;;;1.60;1.10;;;;;;;;;;4989912;28;20445;-82
2023/04/24 08:53:28;;;;;;;2.85;1.20;;;;;;;;;;4990206;28;20434;-83
2023/04/24 08:55:57;;;;;;;2.83;1.20;;;;;;;;;;4990915;28;21099;-82
2023/04/24 08:58:31;;;;;;;2.30;1.30;;;;;;;;;;4984509;28;20505;-83
2023/04/24 09:00:59;;;;;;;3.38;1.38;;;;;;;;;;4989770;28;20433;-83
2023/04/24 09:03:27;;;;;;;3.47;1.30;;;;;;;;;;4965047;28;20425;-85
2023/04/24 09:06:01;;;;;;;2.75;1.50;;;;;;;;;;4970023;28;21854;-83
2023/04/24 09:08:29;;;;;;;2.10;1.30;;;;;;;;;;4976013;28;21084;-82
2023/04/24 09:11:01;;;;;;;1.98;1.35;;;;;;;;;;4962624;28;20434;-81
2023/04/24 09:13:29;;;;;;;2.80;1.70;;;;;;;;;;4967495;28;21117;-82
2023/04/24 09:15:59;;;;;;;3.30;1.60;;;;;;;;;;4969301;28;20429;-82
2023/04/24 09:18:27;;;;;;;3.40;1.70;;;;;;;;;;4982568;28;20532;-83
2023/04/24 09:21:01;;;;;;;4.00;2.00;;;;;;;;;;4981063;28;20436;-82
2023/04/24 09:23:34;;;;;;;4.45;1.80;;;;;;;;;;4987799;28;20468;-82
2023/04/24 09:26:05;;;;;;;4.10;2.05;;;;;;;;;;4994495;28;20434;-82
2023/04/24 09:28:35;;;;;;;3.35;1.90;;;;;;;;;;4986639;28;20416;-82
2023/04/24 09:31:04;;;;;;;5.70;2.83;;;;;;;;;;4991946;28;20422;-82
2023/04/24 09:33:32;;;;;;;5.00;2.33;;;;;;;;;;4986181;28;21208;-82
2023/04/24 09:36:05;;;;;;;5.80;2.40;;;;;;;;;;4971572;28;20445;-84
2023/04/24 09:38:38;;;;;;;4.85;2.60;;;;;;;;;;4986347;28;20437;-82
2023/04/24 09:41:08;;;;;;;5.03;2.80;;;;;;;;;;4985655;28;20434;-82
2023/04/24 09:43:36;;;;;;;4.78;2.83;;;;;;;;;;4971571;28;20817;-82
2023/04/24 09:46:09;;;;;;;4.95;2.85;;;;;;;;;;4983093;28;20447;-81
2023/04/24 09:48:42;;;;;;;4.85;2.83;;;;;;;;;;4983970;28;20575;-82
2023/04/24 09:51:15;;;;;;;4.85;2.97;;;;;;;;;;4969107;28;20434;-82
2023/04/24 09:53:48;;;;;;;6.20;3.25;;;;;;;;;;4976171;28;22017;-82
2023/04/24 09:56:26;;;;;;;12.20;3.90;;;;;;;;;;4987887;28;20942;-82
2023/04/24 09:59:04;;;;;;;7.10;3.77;;;;;;;;;;4977865;28;20418;-83
2023/04/24 10:01:33;;;;;;;8.02;3.50;;;;;;;;;;4996415;28;20434;-83
2023/04/24 10:04:01;;;;;;;6.97;3.70;;;;;;;;;;4965285;28;22053;-83
2023/04/24 10:06:35;;;;;;;7.38;4.00;;;;;;;;;;4967541;28;20907;-81
2023/04/24 10:09:03;;;;;;;9.57;4.10;;;;;;;;;;4989826;28;20422;-81
2023/04/24 10:11:32;;;;;;;6.60;4.03;;;;;;;;;;4986216;28;20414;-81
2023/04/24 10:14:00;;;;;;;6.43;3.53;;;;;;;;;;4982377;28;20526;-82
2023/04/24 10:16:28;;;;;;;6.47;3.67;;;;;;;;;;4988889;28;20436;-82
2023/04/24 10:18:56;;;;;;;6.85;3.90;;;;;;;;;;4983963;28;20465;-81
2023/04/24 10:21:24;;;;;;;6.45;3.90;;;;;;;;;;4992968;28;20441;-82
2023/04/24 10:23:52;;;;;;;7.38;4.00;;;;;;;;;;4979457;28;20429;-83
2023/04/24 10:26:20;;;;;;;7.07;4.20;;;;;;;;;;4986915;28;20446;-81
2023/04/24 10:28:49;;;;;;;6.78;4.10;;;;;;;;;;4977907;28;20917;-85
2023/04/24 10:31:17;;;;;;;6.60;3.60;;;;;;;;;;4974551;28;20404;-82
2023/04/24 10:33:46;;;;;;;7.55;3.92;;;;;;;;;;4976215;28;20432;-82
2023/04/24 10:36:19;;;;;;;7.20;3.77;;;;;;;;;;4982802;28;20533;-81
2023/04/24 10:38:53;;;;;;;7.70;3.72;;;;;;;;;;4980104;28;20517;-81
2023/04/24 10:41:23;;;;;;;7.55;3.92;;;;;;;;;;4999603;28;20441;-81
2023/04/24 10:44:07;;;;;;;6.07;3.30;;;;;;;;;;4972742;28;20980;-82
2023/04/24 10:46:34;;;;;;;6.70;3.70;;;;;;;;;;4992006;28;20426;-80
2023/04/24 10:49:06;;;;;;;8.73;4.05;;;;;;;;;;4993558;28;20436;-81
2023/04/24 10:51:47;;;;;;;7.47;3.53;;;;;;;;;;4990238;28;20456;-81
2023/04/24 10:54:25;;;;;;;5.78;3.33;;;;;;;;;;4982456;28;20434;-80
2023/04/24 10:56:53;;;;;;;6.43;3.70;;;;;;;;;;4971179;28;20437;-81
2023/04/24 10:59:28;;;;;;;6.90;3.70;;;;;;;;;;4973909;28;20794;-81
2023/04/24 11:01:56;;;;;;;9.80;3.97;;;;;;;;;;4975129;28;20429;-82
2023/04/24 11:04:32;;;;;;;7.43;4.15;;;;;;;;;;4978047;28;20826;-81
2023/04/24 11:07:00;;;;;;;6.57;4.03;;;;;;;;;;4995555;28;20456;-81
2023/04/24 11:09:28;;;;;;;7.63;4.50;;;;;;;;;;4980844;28;20421;-81
2023/04/24 11:12:06;;;;;;;7.25;4.15;;;;;;;;;;4976376;28;20429;-83
2023/04/24 11:14:49;;;;;;;6.63;3.95;;;;;;;;;;4977277;28;20431;-81
2023/04/24 11:17:29;;;;;;;7.20;4.10;;;;;;;;;;4973078;28;20432;-82
2023/04/24 11:20:01;;;;;;;8.85;5.07;;;;;;;;;;4977071;28;20440;-81
2023/04/24 11:22:35;;;;;;;7.97;4.80;;;;;;;;;;4970009;28;20426;-82
2023/04/24 11:25:09;;;;;;;8.75;4.97;;;;;;;;;;4980165;28;20424;-82
2023/04/24 11:27:42;;;;;;;9.50;5.15;;;;;;;;;;4977174;28;20438;-82
2023/04/24 11:30:11;;;;;;;10.23;5.47;;;;;;;;;;4976997;28;20442;-82
2023/04/24 11:32:48;;;;;;;10.68;5.25;;;;;;;;;;4989919;28;20426;-81
2023/04/24 11:35:16;;;;;;;9.60;5.40;;;;;;;;;;4982825;28;20430;-82
2023/04/24 11:37:50;;;;;;;9.10;5.20;;;;;;;;;;4991499;28;20792;-82
2023/04/24 11:40:25;;;;;;;9.23;5.05;;;;;;;;;;4979678;28;20428;-82
2023/04/24 11:42:55;;;;;;;9.50;5.37;;;;;;;;;;4976908;28;20442;-82
2023/04/24 11:45:30;;;;;;;9.80;5.50;;;;;;;;;;4974108;28;20439;-81
2023/04/24 11:48:05;;;;;;;9.57;4.50;;;;;;;;;;4973165;28;20436;-80
2023/04/24 11:50:37;;;;;;;8.43;4.60;;;;;;;;;;4974794;28;20940;-83
2023/04/24 11:53:10;;;;;;;9.57;5.07;;;;;;;;;;4989301;28;20433;-82
2023/04/24 11:55:43;;;;;;;7.90;4.70;;;;;;;;;;4970720;28;20436;-80
2023/04/24 11:58:16;;;;;;;6.97;4.13;;;;;;;;;;4971448;28;20442;-81
2023/04/24 12:00:56;;;;;;;9.55;5.20;;;;;;;;;;4991512;28;20434;-81
2023/04/24 12:03:25;;;;;;;7.95;4.72;;;;;;;;;;4974184;28;20437;-83
2023/04/24 12:06:04;;;;;;;9.85;4.70;;;;;;;;;;4968200;28;20426;-82
2023/04/24 12:08:38;;;;;;;9.10;5.30;;;;;;;;;;4974601;28;20445;-81
2023/04/24 12:11:07;;;;;;;9.23;4.90;;;;;;;;;;4992020;28;20443;-81
2023/04/24 12:13:36;;;;;;;10.45;5.35;;;;;;;;;;4984480;28;20459;-81
2023/04/24 12:16:09;;;;;;;8.27;4.57;;;;;;;;;;4993049;28;20437;-81
2023/04/24 12:18:43;;;;;;;8.27;4.68;;;;;;;;;;4979096;28;20497;-82
2023/04/24 12:21:20;;;;;;;8.57;4.28;;;;;;;;;;4978065;28;20442;-85
2023/04/24 12:23:48;;;;;;;7.65;4.22;;;;;;;;;;4977990;28;20412;-81
2023/04/24 12:26:19;;;;;;;7.85;3.92;;;;;;;;;;4967471;28;20449;-82
2023/04/24 12:28:52;;;;;;;5.95;3.75;;;;;;;;;;4987034;28;20452;-84
2023/04/24 12:31:26;;;;;;;6.82;3.95;;;;;;;;;;4986496;28;20427;-82
2023/04/24 12:34:00;;;;;;;7.90;3.60;;;;;;;;;;4970292;28;20434;-81
2023/04/24 12:36:35;;;;;;;8.82;4.40;;;;;;;;;;4985961;28;20525;-80
2023/04/24 12:39:03;;;;;;;7.32;4.18;;;;;;;;;;4986146;28;20426;-80
2023/04/24 12:41:31;;;;;;;8.23;4.45;;;;;;;;;;4970753;28;20415;-82
2023/04/24 12:43:59;;;;;;;7.35;4.53;;;;;;;;;;4971025;28;20441;-83
2023/04/24 12:46:27;;;;;;;8.80;4.40;;;;;;;;;;4972323;28;20787;-82
2023/04/24 12:48:54;;;;;;;8.80;4.75;;;;;;;;;;4974081;28;21149;-83
2023/04/24 12:51:29;;;;;;;8.93;4.68;;;;;;;;;;4970505;28;20430;-81
2023/04/24 12:53:56;;;;;;;10.70;4.40;;;;;;;;;;4989998;28;20472;-84
2023/04/24 12:56:24;;;;;;;8.05;4.47;;;;;;;;;;4987935;28;21862;-83
2023/04/24 12:58:52;;;;;;;7.97;4.32;;;;;;;;;;4975974;28;20824;-84
2023/04/24 13:01:20;;;;;;;7.88;4.45;;;;;;;;;;4986147;28;20432;-81
2023/04/24 13:03:48;;;;;;;6.65;4.10;;;;;;;;;;4982106;28;20445;-82
2023/04/24 13:06:15;;;;;;;6.43;3.70;;;;;;;;;;4974729;28;20439;-84
2023/04/24 13:08:51;;;;;;;6.27;3.30;;;;;;;;;;4977773;28;20918;-82
2023/04/24 13:11:19;;;;;;;5.65;3.30;;;;;;;;;;4988085;28;20943;-80
2023/04/24 13:13:55;;;;;;;6.80;3.60;;;;;;;;;;4971851;28;20829;-84
2023/04/24 13:16:28;;;;;;;5.63;3.40;;;;;;;;;;4984387;28;20438;-85
2023/04/24 13:19:01;;;;;;;7.13;4.10;;;;;;;;;;4986313;28;20430;-86
2023/04/24 13:21:30;;;;;;;7.47;4.03;;;;;;;;;;4969932;28;20438;-85
2023/04/24 13:23:59;;;;;;;7.03;3.53;;;;;;;;;;4964483;28;20436;-86
2023/04/24 13:26:27;;;;;;;6.85;3.65;;;;;;;;;;4953352;28;20445;-80
2023/04/24 13:29:00;;;;;;;7.20;3.92;;;;;;;;;;4965478;28;20438;-82
2023/04/24 13:31:28;;;;;;;7.32;3.50;;;;;;;;;;4974462;28;20469;-84
2023/04/24 13:33:55;;;;;;;6.13;3.42;;;;;;;;;;4982477;28;20447;-83
2023/04/24 13:36:23;;;;;;;7.07;3.50;;;;;;;;;;4981271;28;20417;-82
2023/04/24 13:38:51;;;;;;;6.27;3.40;;;;;;;;;;4991847;28;20539;-82
2023/04/24 13:41:25;;;;;;;6.72;3.72;;;;;;;;;;4975859;28;20426;-83
2023/04/24 13:43:53;;;;;;;5.53;3.27;;;;;;;;;;4971099;28;20432;-85
2023/04/24 13:46:21;;;;;;;5.85;3.30;;;;;;;;;;4988852;28;21861;-84
2023/04/24 13:48:48;;;;;;;7.75;3.38;;;;;;;;;;4967418;28;20447;-81
2023/04/24 13:51:16;;;;;;;7.07;3.50;;;;;;;;;;4965308;28;20438;-82
2023/04/24 13:53:44;;;;;;;7.10;3.50;;;;;;;;;;4981746;28;20426;-82
2023/04/24 13:56:17;;;;;;;6.35;3.50;;;;;;;;;;4970991;28;20438;-83
2023/04/24 13:58:46;;;;;;;6.75;3.45;;;;;;;;;;4985879;28;20448;-80
2023/04/24 14:01:15;;;;;;;8.65;3.63;;;;;;;;;;4968849;28;20438;-81
2023/04/24 14:03:43;;;;;;;6.32;3.42;;;;;;;;;;4972665;28;20432;-83
2023/04/24 14:06:16;;;;;;;6.07;3.33;;;;;;;;;;4966524;28;20442;-84
2023/04/24 14:08:44;;;;;;;5.13;2.97;;;;;;;;;;4968247;28;20451;-83
2023/04/24 14:11:17;;;;;;;5.38;3.00;;;;;;;;;;4986988;28;20446;-81
2023/04/24 14:13:45;;;;;;;6.32;3.28;;;;;;;;;;4973496;28;22249;-82
2023/04/24 14:16:14;;;;;;;4.13;2.55;;;;;;;;;;4970273;28;20437;-83
2023/04/24 14:18:47;;;;;;;4.43;2.60;;;;;;;;;;4979208;28;20446;-80
2023/04/24 14:21:20;;;;;;;4.20;2.50;;;;;;;;;;4985572;28;20487;-84
2023/04/24 14:23:48;;;;;;;4.20;2.50;;;;;;;;;;4990936;28;20629;-83
2023/04/24 14:26:18;;;;;;;4.68;2.85;;;;;;;;;;4981096;28;20438;-83
2023/04/24 14:28:46;;;;;;;3.85;2.40;;;;;;;;;;4970705;28;20443;-80
2023/04/24 14:31:15;;;;;;;3.83;2.40;;;;;;;;;;4978603;28;20462;-81
2023/04/24 14:33:42;;;;;;;3.80;2.50;;;;;;;;;;4983147;28;20434;-81
2023/04/24 14:36:10;;;;;;;5.10;2.85;;;;;;;;;;4976367;28;20506;-81
2023/04/24 14:38:43;;;;;;;6.77;2.80;;;;;;;;;;4988339;28;20977;-82
2023/04/24 14:41:11;;;;;;;4.63;2.67;;;;;;;;;;4968610;28;20452;-82
2023/04/24 14:43:40;;;;;;;6.03;3.00;;;;;;;;;;4970102;28;20426;-80
2023/04/24 14:46:12;;;;;;;5.07;2.90;;;;;;;;;;4973964;28;20428;-82
2023/04/24 14:48:46;;;;;;;5.93;3.05;;;;;;;;;;4975512;28;20420;-81
2023/04/24 14:51:19;;;;;;;4.15;2.45;;;;;;;;;;4982664;28;20462;-81
2023/04/24 14:53:52;;;;;;;5.07;2.75;;;;;;;;;;4983210;28;20456;-81
2023/04/24 14:56:20;;;;;;;5.00;2.50;;;;;;;;;;4986999;28;20926;-82
2023/04/24 14:58:47;;;;;;;4.43;2.50;;;;;;;;;;4961019;28;20424;-82
2023/04/24 15:01:15;;;;;;;5.78;2.47;;;;;;;;;;4963667;28;20465;-81
2023/04/24 15:03:43;;;;;;;4.50;2.38;;;;;;;;;;4978356;28;20964;-81
2023/04/24 15:06:17;;;;;;;4.45;2.40;;;;;;;;;;4974268;28;20440;-82
2023/04/24 15:08:50;;;;;;;4.60;2.20;;;;;;;;;;4976506;28;21071;-82